createdAt,value
2023-04-15T00:00:31.885Z,3.25
2023-04-15T00:03:35.738Z,1.90
2023-04-15T00:06:40.089Z,2.20
2023-04-15T00:09:44.923Z,2.73
2023-04-15T00:12:48.027Z,1.93
2023-04-15T00:15:51.299Z,2.22
2023-04-15T00:18:54.577Z,2.70
2023-04-15T00:21:57.673Z,3.13
2023-04-15T00:25:01.202Z,2.07
2023-04-15T00:28:04.440Z,3.33
2023-04-15T00:31:07.881Z,2.35
2023-04-15T00:34:10.948Z,2.30
2023-04-15T00:37:14.239Z,2.22
2023-04-15T00:40:19.883Z,2.67
2023-04-15T00:43:23.363Z,2.80
2023-04-15T00:46:28.985Z,1.88
2023-04-15T00:49:32.385Z,2.40
2023-04-15T00:52:36.298Z,2.17
2023-04-15T00:55:40.484Z,2.30
2023-04-15T00:58:43.591Z,2.20
2023-04-15T01:01:48.675Z,3.05
2023-04-15T01:04:52.198Z,2.40
2023-04-15T01:07:56.345Z,2.72
2023-04-15T01:11:03.730Z,2.63
2023-04-15T01:14:09.124Z,2.47
2023-04-15T01:17:13.372Z,3.17
2023-04-15T01:20:17.262Z,2.42
2023-04-15T01:23:22.183Z,2.33
2023-04-15T01:26:25.985Z,2.30
2023-04-15T01:29:29.920Z,2.30
2023-04-15T01:32:33.269Z,1.90
2023-04-15T01:35:55.066Z,2.20
2023-04-15T01:39:02.209Z,2.70
2023-04-15T01:42:05.326Z,2.27
2023-04-15T01:45:10.264Z,2.57
2023-04-15T01:48:15.925Z,2.25
2023-04-15T01:51:20.449Z,2.13
2023-04-15T01:54:27.815Z,2.55
2023-04-15T01:57:32.394Z,2.80
2023-04-15T02:00:37.000Z,2.60
2023-04-15T02:03:41.718Z,3.85
2023-04-15T02:06:46.552Z,2.90
2023-04-15T02:09:52.026Z,3.15
2023-04-15T02:12:56.584Z,3.53
2023-04-15T02:16:05.405Z,2.73
2023-04-15T02:19:10.209Z,2.97
2023-04-15T02:22:18.886Z,4.05
2023-04-15T02:25:24.354Z,3.72
2023-04-15T02:28:28.920Z,3.90
2023-04-15T02:31:37.210Z,3.80
2023-04-15T02:34:42.863Z,3.55
2023-04-15T02:37:47.976Z,3.70
2023-04-15T02:40:52.817Z,3.80
2023-04-15T02:43:57.486Z,3.90
2023-04-15T02:47:01.814Z,4.27
2023-04-15T02:50:09.615Z,3.60
2023-04-15T02:53:14.876Z,3.10
2023-04-15T02:56:20.069Z,3.83
2023-04-15T02:59:25.456Z,3.60
2023-04-15T03:02:35.700Z,4.07
2023-04-15T03:05:41.119Z,3.58
2023-04-15T03:08:45.982Z,3.38
2023-04-15T03:11:53.546Z,3.92
2023-04-15T03:14:58.737Z,3.97
2023-04-15T03:18:10.952Z,2.83
2023-04-15T03:21:15.101Z,4.13
2023-04-15T03:24:19.197Z,3.88
2023-04-15T03:27:24.518Z,4.00
2023-04-15T03:30:30.825Z,4.97
2023-04-15T03:33:35.216Z,3.37
2023-04-15T03:36:39.864Z,4.57
2023-04-15T03:39:44.520Z,5.05
2023-04-15T03:42:49.306Z,3.10
2023-04-15T03:45:53.413Z,4.20
2023-04-15T03:48:57.497Z,4.17
2023-04-15T03:52:01.704Z,4.03
2023-04-15T03:55:06.062Z,4.18
2023-04-15T03:58:12.991Z,3.55
2023-04-15T04:01:17.644Z,3.90
2023-04-15T04:04:22.088Z,5.10
2023-04-15T04:07:26.516Z,4.32
2023-04-15T04:10:31.225Z,3.83
2023-04-15T04:13:35.649Z,2.95
2023-04-15T04:16:40.290Z,3.50
2023-04-15T04:19:44.534Z,3.13
2023-04-15T04:22:48.944Z,4.20
2023-04-15T04:25:53.661Z,4.32
2023-04-15T04:28:57.866Z,3.92
2023-04-15T04:32:02.256Z,4.13
2023-04-15T04:35:07.382Z,7.00
2023-04-15T04:38:12.099Z,4.28
2023-04-15T04:41:16.591Z,4.57
2023-04-15T04:44:20.969Z,3.72
2023-04-15T04:47:25.277Z,3.73
2023-04-15T04:50:29.722Z,2.73
2023-04-15T04:53:34.074Z,4.50
2023-04-15T04:56:39.818Z,4.38
2023-04-15T04:59:44.238Z,5.22
2023-04-15T05:02:48.929Z,3.43
2023-04-15T05:05:53.578Z,4.73
2023-04-15T05:08:58.263Z,3.20
2023-04-15T05:12:04.217Z,2.80
2023-04-15T05:15:09.089Z,3.90
2023-04-15T05:18:13.430Z,3.90
2023-04-15T05:21:17.939Z,2.90
2023-04-15T05:24:22.680Z,2.80
2023-04-15T05:27:27.287Z,4.22
2023-04-15T05:30:32.025Z,2.33
2023-04-15T05:33:37.206Z,3.23
2023-04-15T05:36:41.427Z,3.27
2023-04-15T05:39:46.014Z,3.50
2023-04-15T05:42:51.422Z,2.90
2023-04-15T05:45:55.809Z,3.08
2023-04-15T05:49:00.966Z,3.27
2023-04-15T05:52:05.996Z,3.40
2023-04-15T05:55:10.400Z,3.90
2023-04-15T05:58:14.752Z,2.25
2023-04-15T06:01:19.491Z,3.13
2023-04-15T06:04:24.350Z,3.33
2023-04-15T06:07:28.748Z,3.43
2023-04-15T06:10:36.812Z,4.07
2023-04-15T06:13:41.675Z,3.10
2023-04-15T06:16:46.062Z,3.72
2023-04-15T06:19:55.505Z,3.57
2023-04-15T06:22:59.771Z,5.10
2023-04-15T06:26:03.909Z,4.78
2023-04-15T06:29:08.520Z,3.63
2023-04-15T06:32:13.163Z,3.80
2023-04-15T06:35:17.930Z,2.27
2023-04-15T06:38:22.173Z,2.97
2023-04-15T06:41:26.490Z,4.03
2023-04-15T06:44:33.290Z,3.33
2023-04-15T06:47:38.429Z,3.35
2023-04-15T06:50:42.981Z,2.53
2023-04-15T06:53:47.595Z,3.27
2023-04-15T06:56:52.543Z,2.55
2023-04-15T06:59:56.888Z,4.03
2023-04-15T07:03:03.852Z,2.63
2023-04-15T07:06:09.560Z,3.10
2023-04-15T07:09:13.804Z,2.87
2023-04-15T07:12:18.547Z,3.72
2023-04-15T07:15:23.620Z,2.70
2023-04-15T07:18:28.238Z,2.35
2023-04-15T07:21:32.822Z,2.17
2023-04-15T07:24:37.092Z,2.00
2023-04-15T07:27:41.809Z,2.80
2023-04-15T07:30:46.503Z,2.35
2023-04-15T07:33:51.541Z,2.20
2023-04-15T07:36:56.165Z,3.27
2023-04-15T07:40:00.599Z,3.17
2023-04-15T07:43:05.847Z,2.38
2023-04-15T07:46:10.605Z,2.40
2023-04-15T07:49:15.992Z,2.40
2023-04-15T07:52:20.530Z,2.40
2023-04-15T07:55:26.186Z,2.20
2023-04-15T07:58:31.804Z,1.90
2023-04-15T08:01:37.000Z,2.97
2023-04-15T08:04:41.927Z,2.10
2023-04-15T08:07:46.972Z,2.63
2023-04-15T08:10:52.963Z,2.43
2023-04-15T08:14:00.522Z,2.67
2023-04-15T08:17:04.737Z,2.35
2023-04-15T08:20:10.472Z,2.45
2023-04-15T08:23:14.907Z,2.50
2023-04-15T08:26:20.092Z,1.70
2023-04-15T08:29:24.774Z,2.10
2023-04-15T08:32:29.221Z,2.40
2023-04-15T08:35:33.595Z,2.45
2023-04-15T08:38:37.895Z,1.90
2023-04-15T08:41:55.485Z,2.00
2023-04-15T08:45:01.973Z,2.13
2023-04-15T08:48:07.812Z,1.90
2023-04-15T08:51:16.193Z,1.95
2023-04-15T08:54:20.967Z,2.30
2023-04-15T08:57:29.330Z,2.47
2023-04-15T09:00:34.270Z,2.42
2023-04-15T09:03:39.834Z,2.25
2023-04-15T09:06:44.591Z,1.52
2023-04-15T09:09:49.587Z,2.33
2023-04-15T09:12:54.200Z,2.80
2023-04-15T09:15:58.960Z,4.15
2023-04-15T09:19:21.774Z,2.60
2023-04-15T09:22:32.479Z,3.58
2023-04-15T09:25:37.180Z,2.17
2023-04-15T09:28:43.710Z,2.77
2023-04-15T09:31:48.218Z,2.72
2023-04-15T09:34:52.619Z,1.80
2023-04-15T09:38:05.967Z,2.00
2023-04-15T09:41:20.800Z,1.60
2023-04-15T09:44:26.904Z,1.63
2023-04-15T09:47:32.548Z,1.88
2023-04-15T09:50:41.712Z,2.03
2023-04-15T09:53:45.999Z,1.55
2023-04-15T09:56:50.654Z,2.20
2023-04-15T09:59:55.225Z,2.33
2023-04-15T10:02:59.764Z,2.08
2023-04-15T10:06:05.836Z,2.58
2023-04-15T10:09:10.323Z,2.30
2023-04-15T10:12:17.757Z,2.23
2023-04-15T10:15:23.500Z,2.10
2023-04-15T10:18:38.196Z,2.10
2023-04-15T10:21:42.971Z,2.13
2023-04-15T10:24:49.212Z,2.25
2023-04-15T10:27:53.804Z,2.50
2023-04-15T10:30:59.571Z,1.50
2023-04-15T10:34:06.675Z,2.65
2023-04-15T10:37:13.937Z,2.97
2023-04-15T10:40:25.537Z,2.00
2023-04-15T10:43:29.911Z,2.53
2023-04-15T10:46:41.392Z,1.80
2023-04-15T10:49:56.937Z,2.03
2023-04-15T10:53:04.906Z,1.77
2023-04-15T10:56:10.631Z,1.55
2023-04-15T10:59:16.582Z,1.35
2023-04-15T11:02:21.666Z,1.60
2023-04-15T11:05:41.566Z,1.30
2023-04-15T11:08:56.804Z,1.20
2023-04-15T11:12:10.616Z,1.30
2023-04-15T11:15:45.106Z,1.20
2023-04-15T11:18:56.576Z,1.20
2023-04-15T11:22:08.222Z,1.10
2023-04-15T11:25:26.404Z,1.35
2023-04-15T11:28:32.821Z,1.77
2023-04-15T11:31:37.790Z,1.27
2023-04-15T11:34:46.297Z,1.00
2023-04-15T11:37:51.630Z,1.35
2023-04-15T11:40:55.852Z,1.50
2023-04-15T11:44:00.536Z,1.30
2023-04-15T11:47:23.539Z,1.17
2023-04-15T11:50:27.950Z,1.60
2023-04-15T11:53:47.994Z,1.60
2023-04-15T11:56:53.035Z,1.70
2023-04-15T11:59:56.251Z,1.60
2023-04-15T12:03:19.732Z,1.77
2023-04-15T12:06:32.872Z,1.70
2023-04-15T12:09:40.075Z,1.95
2023-04-15T12:12:43.554Z,2.33
2023-04-15T12:15:50.389Z,1.20
2023-04-15T12:19:00.976Z,1.80
2023-04-15T12:22:16.010Z,1.63
2023-04-15T12:25:19.288Z,1.20
2023-04-15T12:28:22.224Z,1.48
2023-04-15T12:31:25.968Z,1.25
2023-04-15T12:34:32.304Z,1.52
2023-04-15T12:37:35.806Z,1.60
2023-04-15T12:40:38.946Z,1.55
2023-04-15T12:43:44.587Z,1.85
2023-04-15T12:46:47.964Z,1.52
2023-04-15T12:49:51.016Z,1.48
2023-04-15T12:52:54.538Z,1.30
2023-04-15T12:55:57.656Z,1.40
2023-04-15T12:59:00.937Z,1.58
2023-04-15T13:02:04.584Z,1.30
2023-04-15T13:05:08.262Z,1.38
2023-04-15T13:08:11.447Z,1.57
2023-04-15T13:11:14.599Z,1.23
2023-04-15T13:14:17.998Z,1.13
2023-04-15T13:17:22.214Z,1.45
2023-04-15T13:20:26.997Z,1.77
2023-04-15T13:23:30.079Z,1.70
2023-04-15T13:26:33.204Z,1.30
2023-04-15T13:29:36.338Z,1.80
2023-04-15T13:32:39.516Z,2.63
2023-04-15T13:35:42.451Z,3.05
2023-04-15T13:38:45.612Z,1.87
2023-04-15T13:41:49.383Z,1.65
2023-04-15T13:44:52.466Z,1.65
2023-04-15T13:47:57.271Z,1.30
2023-04-15T13:51:00.394Z,1.73
2023-04-15T13:54:04.281Z,1.13
2023-04-15T13:57:07.928Z,1.10
2023-04-15T14:00:12.074Z,1.00
2023-04-15T14:03:15.463Z,0.93
2023-04-15T14:06:18.550Z,1.23
2023-04-15T14:09:26.263Z,0.80
2023-04-15T14:12:29.981Z,1.10
2023-04-15T14:15:33.186Z,1.40
2023-04-15T14:18:37.492Z,1.20
2023-04-15T14:21:40.710Z,1.73
2023-04-15T14:24:44.841Z,1.43
2023-04-15T14:27:48.648Z,1.42
2023-04-15T14:30:51.711Z,1.45
2023-04-15T14:33:55.041Z,1.60
2023-04-15T14:36:58.531Z,1.67
2023-04-15T14:40:02.242Z,1.37
2023-04-15T14:43:05.862Z,1.17
2023-04-15T14:46:09.358Z,1.50
2023-04-15T14:49:12.884Z,1.17
2023-04-15T14:52:16.974Z,1.70
2023-04-15T14:55:20.532Z,1.60
2023-04-15T14:58:23.849Z,1.20
2023-04-15T15:01:27.192Z,1.30
2023-04-15T15:04:33.628Z,1.40
2023-04-15T15:07:37.885Z,1.55
2023-04-15T15:10:49.279Z,2.17
2023-04-15T15:13:53.585Z,1.00
2023-04-15T15:16:56.769Z,2.80
2023-04-15T15:20:00.122Z,1.60
2023-04-15T15:23:03.233Z,1.42
2023-04-15T15:26:12.767Z,1.47
2023-04-15T15:29:15.829Z,1.50
2023-04-15T15:32:19.318Z,1.00
2023-04-15T15:35:23.085Z,1.35
2023-04-15T15:38:26.429Z,1.48
2023-04-15T15:41:30.159Z,1.10
2023-04-15T15:44:34.642Z,1.13
2023-04-15T15:47:38.517Z,1.85
2023-04-15T15:50:41.768Z,1.67
2023-04-15T15:53:44.913Z,1.98
2023-04-15T15:56:48.217Z,1.70
2023-04-15T16:00:04.914Z,1.33
2023-04-15T16:03:16.061Z,1.70
2023-04-15T16:06:19.306Z,1.70
2023-04-15T16:09:23.043Z,1.60
2023-04-15T16:12:26.964Z,1.27
2023-04-15T16:15:30.424Z,1.67
2023-04-15T16:18:35.372Z,1.58
2023-04-15T16:21:38.551Z,1.77
2023-04-15T16:24:41.705Z,1.52
2023-04-15T16:27:57.805Z,1.60
2023-04-15T16:31:04.604Z,2.13
2023-04-15T16:34:07.610Z,1.95
2023-04-15T16:37:10.698Z,2.00
2023-04-15T16:40:15.233Z,1.80
2023-04-15T16:43:18.345Z,4.37
2023-04-15T16:46:21.704Z,1.27
2023-04-15T16:49:24.817Z,1.90
2023-04-15T16:52:29.083Z,1.60
2023-04-15T16:55:32.262Z,2.17
2023-04-15T16:58:35.806Z,2.27
2023-04-15T17:01:39.049Z,1.00
2023-04-15T17:04:42.247Z,1.55
2023-04-15T17:07:45.498Z,2.42
2023-04-15T17:10:49.399Z,1.97
2023-04-15T17:13:52.967Z,1.80
2023-04-15T17:16:56.726Z,1.83
2023-04-15T17:20:00.449Z,1.65
2023-04-15T17:23:04.370Z,1.63
2023-04-15T17:26:07.944Z,2.40
2023-04-15T17:29:11.354Z,2.87
2023-04-15T17:32:22.904Z,2.05
2023-04-15T17:35:45.834Z,2.10
2023-04-15T17:39:09.042Z,1.73
2023-04-15T17:42:32.415Z,2.00
2023-04-15T17:45:56.568Z,2.07
2023-04-15T17:49:21.081Z,2.00
2023-04-15T17:52:44.334Z,1.67
2023-04-15T17:56:07.293Z,1.67
2023-04-15T17:59:30.309Z,1.80
2023-04-15T18:02:55.325Z,1.80
2023-04-15T18:06:21.414Z,1.90
2023-04-15T18:09:44.590Z,2.53
2023-04-15T18:13:08.136Z,2.30
2023-04-15T18:16:31.496Z,2.53
2023-04-15T18:19:54.681Z,3.13
2023-04-15T18:22:58.331Z,2.50
2023-04-15T18:26:01.779Z,2.88
2023-04-15T18:29:05.542Z,2.40
2023-04-15T18:32:09.794Z,4.03
2023-04-15T18:35:12.999Z,3.87
2023-04-15T18:38:16.012Z,5.00
2023-04-15T18:41:19.861Z,10.70
2023-04-15T18:44:23.243Z,9.63
2023-04-15T18:47:27.782Z,9.85
2023-04-15T18:50:31.603Z,13.60
2023-04-15T18:53:35.170Z,16.90
2023-04-15T18:56:39.006Z,19.33
2023-04-15T18:59:42.727Z,10.55
2023-04-15T19:02:45.802Z,11.80
2023-04-15T19:05:49.112Z,11.63
2023-04-15T19:08:52.298Z,8.18
2023-04-15T19:11:57.025Z,7.80
2023-04-15T19:15:00.596Z,7.53
2023-04-15T19:18:05.461Z,5.18
2023-04-15T19:21:08.685Z,7.93
2023-04-15T19:24:12.872Z,3.78
2023-04-15T19:27:16.274Z,4.80
2023-04-15T19:30:21.412Z,2.33
2023-04-15T19:33:27.481Z,3.38
2023-04-15T19:36:32.118Z,4.10
2023-04-15T19:39:35.603Z,2.67
2023-04-15T19:42:38.553Z,3.50
2023-04-15T19:45:45.891Z,2.15
2023-04-15T19:48:49.542Z,2.60
2023-04-15T19:51:53.161Z,2.00
2023-04-15T19:54:57.197Z,3.05
2023-04-15T19:58:01.774Z,2.40
2023-04-15T20:01:05.425Z,2.28
2023-04-15T20:04:09.059Z,2.70
2023-04-15T20:07:12.069Z,2.97
2023-04-15T20:10:15.880Z,4.50
2023-04-15T20:13:19.453Z,3.20
2023-04-15T20:16:23.111Z,3.42
2023-04-15T20:19:26.305Z,3.50
2023-04-15T20:22:29.836Z,3.87
2023-04-15T20:25:33.045Z,3.83
2023-04-15T20:28:36.264Z,3.13
2023-04-15T20:31:40.600Z,4.63
2023-04-15T20:34:44.462Z,2.92
2023-04-15T20:37:49.126Z,2.20
2023-04-15T20:40:52.563Z,2.13
2023-04-15T20:43:55.906Z,1.90
2023-04-15T20:46:59.526Z,2.90
2023-04-15T20:50:02.896Z,2.53
2023-04-15T20:53:06.527Z,2.47
2023-04-15T20:56:09.892Z,2.72
2023-04-15T20:59:13.192Z,2.42
2023-04-15T21:02:16.639Z,3.92
2023-04-15T21:05:21.022Z,2.87
2023-04-15T21:08:29.417Z,2.83
2023-04-15T21:11:53.117Z,4.43
2023-04-15T21:14:56.890Z,3.70
2023-04-15T21:18:00.316Z,4.05
2023-04-15T21:21:03.817Z,3.27
2023-04-15T21:24:10.162Z,3.03
2023-04-15T21:27:13.284Z,3.75
2023-04-15T21:30:16.903Z,2.55
2023-04-15T21:33:20.624Z,3.67
2023-04-15T21:36:23.933Z,3.27
2023-04-15T21:39:31.027Z,3.17
2023-04-15T21:42:34.287Z,5.95
2023-04-15T21:45:39.671Z,4.60
2023-04-15T21:48:43.477Z,3.28
2023-04-15T21:51:47.624Z,3.77
2023-04-15T21:54:51.065Z,4.43
2023-04-15T21:57:54.404Z,3.55
2023-04-15T22:01:00.124Z,4.10
2023-04-15T22:04:03.497Z,4.95
2023-04-15T22:07:06.817Z,7.93
2023-04-15T22:10:10.306Z,4.10
2023-04-15T22:13:14.336Z,4.55
2023-04-15T22:16:17.383Z,3.70
2023-04-15T22:19:20.915Z,3.55
2023-04-15T22:22:27.100Z,2.90
2023-04-15T22:25:47.616Z,2.97
2023-04-15T22:28:51.657Z,4.70
2023-04-15T22:31:55.304Z,6.32
2023-04-15T22:34:58.383Z,4.35
2023-04-15T22:38:01.620Z,3.43
2023-04-15T22:41:05.195Z,3.83
2023-04-15T22:44:08.691Z,3.33
2023-04-15T22:47:11.975Z,3.60
2023-04-15T22:50:15.022Z,3.47
2023-04-15T22:53:18.434Z,4.00
2023-04-15T22:56:23.044Z,3.63
2023-04-15T22:59:26.202Z,2.85
2023-04-15T23:02:29.783Z,3.00
2023-04-15T23:05:32.918Z,3.03
2023-04-15T23:08:37.110Z,2.73
2023-04-15T23:11:40.195Z,2.30
2023-04-15T23:14:43.621Z,2.05
2023-04-15T23:17:46.861Z,2.10
2023-04-15T23:20:50.083Z,2.42
2023-04-15T23:23:53.234Z,2.47
2023-04-15T23:26:57.560Z,2.83
2023-04-15T23:30:00.864Z,2.80
2023-04-15T23:33:04.674Z,2.10
2023-04-15T23:36:08.094Z,2.60
2023-04-15T23:39:11.846Z,2.33
2023-04-15T23:42:14.940Z,1.83
2023-04-15T23:45:18.951Z,2.38
2023-04-15T23:48:23.766Z,2.53
2023-04-15T23:51:27.001Z,2.65
2023-04-15T23:54:30.181Z,3.13
2023-04-15T23:57:33.263Z,3.73
